aviador You're here:

KPNE Decoded Metar

PHILADELPHIA in PA, USA
Report Time2017-08-22 00:54:00
UTC Time2017-08-22 01:33:58
Flight Rules vfr VFR
WindCalm
Visibility9999 m
Phenomena:N/A
Clouds:Few 060 Hf
Expected CloudBase > 2,400 ft AGL from Temp-Dew spread
CeilingNone
Temp27°C (ISA +12)
Dew Point21°C (70% RH)
Heat Index28.9°C
QNH1021 hPa
Density Alt1,555 ft
Elevation92 ft
Report Wrong Elevation
Raw Report
KPNE 220054Z 00000KT 10SM FEW060 27/21 A3014 RMK AO2 SLP205
T02720211=

Extra information for KPNE:More info

Metar Taf Metar & Taf Last 4 Metars F.Rules Stats Wind Profile Meteogram Temp Stats Airport Information Weather charts Add Link Nearby VenuesMetar ALERT Operation Metar Decoded Social comments

AIRNAV info for KPNE